Time;durP1;ratioP1;P1;durP2;ratioP2;P2;SDS_P1;SDS_P2;PMS_P1;PMS_P2;Temp;Humidity;BMP_temperature;BMP_pressure;BME280_temperature;BME280_humidity;BME280_pressure;Samples;Min_cycle;Max_cycle;Signal;HPM_P1;HPM_P2
2023/01/10 00:00:52;;;;;;;;;;;21.20;38.00;;;;;;475536;249;1692;-45
2023/01/10 00:02:54;;;;;;;;;;;21.20;38.10;;;;;;475541;249;1707;-44
2023/01/10 00:04:55;;;;;;;;;;;21.20;38.10;;;;;;475553;249;1722;-45
2023/01/10 00:06:56;;;;;;;;;;;21.20;38.20;;;;;;475571;249;2313;-44
2023/01/10 00:08:58;;;;;;;;;;;21.10;38.10;;;;;;475598;249;1981;-44
2023/01/10 00:13:21;;;;;;;;;;;21.10;38.20;;;;;;475513;249;1706;-45
2023/01/10 00:15:20;;;;;;;;;;;21.60;37.50;;;;;;475505;250;1901;-45
2023/01/10 00:17:21;;;;;;;;;;;21.80;37.00;;;;;;475523;249;2196;-44
2023/01/10 00:19:22;;;;;;;;;;;22.00;36.60;;;;;;475462;249;2259;-44
2023/01/10 00:21:24;;;;;;;;;;;22.20;36.40;;;;;;475570;249;1721;-45
2023/01/10 00:23:25;;;;;;;;;;;22.30;36.10;;;;;;475468;249;1685;-45
2023/01/10 00:25:26;;;;;;;;;;;22.40;35.90;;;;;;475605;249;2123;-44
2023/01/10 00:27:28;;;;;;;;;;;22.50;35.80;;;;;;475613;249;1778;-45
2023/01/10 00:29:30;;;;;;;;;;;22.60;35.70;;;;;;475615;249;1836;-44
2023/01/10 00:31:30;;;;;;;;;;;22.60;35.50;;;;;;475524;249;1943;-45
2023/01/10 00:33:32;;;;;;;;;;;22.70;35.40;;;;;;475554;249;2490;-44
2023/01/10 00:35:33;;;;;;;;;;;22.70;35.30;;;;;;475569;249;1953;-45
2023/01/10 00:37:34;;;;;;;;;;;22.80;35.20;;;;;;475573;249;2207;-45
2023/01/10 00:39:35;;;;;;;;;;;22.80;35.10;;;;;;475578;249;1823;-45
2023/01/10 00:43:56;;;;;;;;;;;22.90;35.00;;;;;;475732;250;1706;-45
2023/01/10 00:45:58;;;;;;;;;;;23.00;34.90;;;;;;475588;249;1837;-45
2023/01/10 00:47:59;;;;;;;;;;;23.00;34.80;;;;;;475611;249;1689;-45
2023/01/10 00:50:00;;;;;;;;;;;23.00;34.80;;;;;;475644;249;1997;-45
2023/01/10 00:52:02;;;;;;;;;;;23.10;34.80;;;;;;475491;249;2120;-44
2023/01/10 00:54:03;;;;;;;;;;;23.10;34.70;;;;;;475779;249;2774;-45
2023/01/10 00:56:04;;;;;;;;;;;23.10;34.60;;;;;;475777;249;1928;-45
2023/01/10 00:58:07;;;;;;;;;;;23.20;34.70;;;;;;475676;249;2192;-44
2023/01/10 01:00:08;;;;;;;;;;;23.20;34.60;;;;;;475683;249;2281;-44
2023/01/10 01:02:08;;;;;;;;;;;23.20;34.60;;;;;;475637;250;2673;-45
2023/01/10 01:04:10;;;;;;;;;;;23.30;34.60;;;;;;475662;249;1736;-45
2023/01/10 01:06:11;;;;;;;;;;;23.30;34.50;;;;;;475633;249;1923;-45
2023/01/10 01:08:12;;;;;;;;;;;23.30;34.50;;;;;;475885;249;1807;-45
2023/01/10 01:10:26;;;;;;;;;;;23.30;34.40;;;;;;475898;249;2413;-45
2023/01/10 01:12:27;;;;;;;;;;;23.30;34.40;;;;;;475888;249;1990;-45
2023/01/10 01:14:28;;;;;;;;;;;23.40;34.40;;;;;;475873;249;1717;-45
2023/01/10 01:16:30;;;;;;;;;;;23.40;34.30;;;;;;475800;249;1700;-44
2023/01/10 01:18:31;;;;;;;;;;;23.40;34.30;;;;;;475814;249;2191;-45
2023/01/10 01:20:32;;;;;;;;;;;23.40;34.30;;;;;;475744;249;2526;-45
2023/01/10 01:22:34;;;;;;;;;;;23.50;34.20;;;;;;475811;249;1992;-45
2023/01/10 01:24:35;;;;;;;;;;;23.50;34.30;;;;;;475761;249;1679;-44
2023/01/10 01:26:36;;;;;;;;;;;23.50;34.30;;;;;;475853;249;1703;-45
2023/01/10 01:28:38;;;;;;;;;;;23.50;34.20;;;;;;475778;249;1832;-44
2023/01/10 01:30:39;;;;;;;;;;;23.50;34.20;;;;;;475841;249;2034;-45
2023/01/10 01:32:40;;;;;;;;;;;23.50;34.20;;;;;;475790;249;1849;-45
2023/01/10 01:34:42;;;;;;;;;;;23.50;34.30;;;;;;475760;249;1844;-44
2023/01/10 01:36:43;;;;;;;;;;;23.20;34.50;;;;;;475805;249;1722;-44
2023/01/10 01:38:44;;;;;;;;;;;23.00;35.10;;;;;;475820;249;2125;-44
2023/01/10 01:40:46;;;;;;;;;;;22.70;35.50;;;;;;475970;249;1717;-44
2023/01/10 01:42:47;;;;;;;;;;;22.50;35.90;;;;;;475908;249;2198;-44
2023/01/10 01:44:48;;;;;;;;;;;22.30;36.20;;;;;;475876;249;1851;-44
2023/01/10 01:46:50;;;;;;;;;;;22.20;36.50;;;;;;475868;249;2071;-44
2023/01/10 01:48:51;;;;;;;;;;;22.10;36.60;;;;;;475777;249;2180;-45
2023/01/10 01:50:52;;;;;;;;;;;22.00;36.70;;;;;;475875;249;1742;-44
2023/01/10 01:52:54;;;;;;;;;;;22.00;36.90;;;;;;476052;249;2574;-44
2023/01/10 01:54:55;;;;;;;;;;;21.90;36.90;;;;;;475994;249;1722;-45
2023/01/10 01:56:56;;;;;;;;;;;21.80;37.00;;;;;;476051;249;2177;-44
2023/01/10 01:58:58;;;;;;;;;;;21.80;37.10;;;;;;476071;249;1728;-45
2023/01/10 02:00:59;;;;;;;;;;;21.70;37.20;;;;;;475820;249;1734;-45
2023/01/10 02:03:00;;;;;;;;;;;21.60;37.40;;;;;;475826;249;1736;-45
2023/01/10 02:05:02;;;;;;;;;;;21.60;37.40;;;;;;475897;249;1642;-44
2023/01/10 02:07:03;;;;;;;;;;;21.60;37.50;;;;;;476009;249;1711;-44
2023/01/10 02:09:04;;;;;;;;;;;21.60;37.50;;;;;;476103;249;1827;-44
2023/01/10 02:11:07;;;;;;;;;;;21.50;37.60;;;;;;476083;249;1836;-44
2023/01/10 02:13:07;;;;;;;;;;;21.50;37.70;;;;;;476008;250;1864;-44
2023/01/10 02:15:08;;;;;;;;;;;21.40;37.70;;;;;;475897;249;1879;-44
2023/01/10 02:17:09;;;;;;;;;;;21.40;37.70;;;;;;475913;249;2200;-44
2023/01/10 02:19:11;;;;;;;;;;;21.40;37.70;;;;;;475880;249;1761;-44
2023/01/10 02:21:12;;;;;;;;;;;21.40;37.80;;;;;;475889;249;1852;-44
2023/01/10 02:23:13;;;;;;;;;;;21.30;37.80;;;;;;475790;249;2109;-45
2023/01/10 02:25:15;;;;;;;;;;;21.40;37.90;;;;;;475898;249;1589;-44
2023/01/10 02:27:16;;;;;;;;;;;21.40;38.00;;;;;;475942;249;1756;-44
2023/01/10 02:29:17;;;;;;;;;;;21.30;37.90;;;;;;475819;249;1931;-44
2023/01/10 02:31:19;;;;;;;;;;;21.30;38.00;;;;;;475776;249;2029;-45
2023/01/10 02:33:21;;;;;;;;;;;21.30;38.00;;;;;;475749;249;1732;-44
2023/01/10 02:35:22;;;;;;;;;;;21.30;38.00;;;;;;475661;249;1865;-45
2023/01/10 02:37:23;;;;;;;;;;;21.30;38.00;;;;;;475694;249;2191;-44
2023/01/10 02:39:25;;;;;;;;;;;21.20;38.00;;;;;;475737;249;1627;-44
2023/01/10 02:41:26;;;;;;;;;;;21.20;38.10;;;;;;475738;249;1729;-44
2023/01/10 02:43:28;;;;;;;;;;;21.20;38.10;;;;;;475852;249;1743;-44
2023/01/10 02:45:29;;;;;;;;;;;21.10;38.20;;;;;;475770;249;1694;-45
2023/01/10 02:47:30;;;;;;;;;;;21.10;38.20;;;;;;475720;249;1828;-45
2023/01/10 02:49:32;;;;;;;;;;;21.10;38.20;;;;;;475873;249;1874;-45
2023/01/10 02:51:33;;;;;;;;;;;21.30;38.10;;;;;;475741;249;1873;-44
2023/01/10 02:53:34;;;;;;;;;;;21.50;37.60;;;;;;475755;249;1935;-45
2023/01/10 02:55:35;;;;;;;;;;;21.70;37.20;;;;;;475811;249;1708;-44
2023/01/10 02:57:37;;;;;;;;;;;22.00;36.90;;;;;;475746;249;2187;-45
2023/01/10 02:59:38;;;;;;;;;;;22.10;36.50;;;;;;475704;249;1702;-45
2023/01/10 03:01:39;;;;;;;;;;;22.20;36.30;;;;;;475716;249;1694;-44
2023/01/10 03:03:41;;;;;;;;;;;22.30;36.10;;;;;;475912;249;1716;-45
2023/01/10 03:05:42;;;;;;;;;;;22.40;35.90;;;;;;475861;249;2006;-45
2023/01/10 03:07:43;;;;;;;;;;;22.50;35.80;;;;;;475799;249;1716;-44
2023/01/10 03:09:45;;;;;;;;;;;22.50;35.70;;;;;;476024;249;2023;-44
2023/01/10 03:11:46;;;;;;;;;;;22.60;35.60;;;;;;475841;249;1769;-44
2023/01/10 03:13:47;;;;;;;;;;;22.70;35.50;;;;;;475991;249;2182;-45
2023/01/10 03:15:49;;;;;;;;;;;22.70;35.40;;;;;;475935;249;1716;-44
2023/01/10 03:17:50;;;;;;;;;;;22.80;35.40;;;;;;475900;249;2180;-45
2023/01/10 03:19:51;;;;;;;;;;;22.80;35.30;;;;;;476101;249;1709;-45
2023/01/10 03:21:53;;;;;;;;;;;22.90;35.20;;;;;;475848;249;2198;-44
2023/01/10 03:23:54;;;;;;;;;;;22.90;35.10;;;;;;475974;249;2256;-45
2023/01/10 03:25:55;;;;;;;;;;;23.00;35.00;;;;;;475897;249;1909;-45
2023/01/10 03:27:57;;;;;;;;;;;23.00;35.00;;;;;;475950;249;1992;-45
2023/01/10 03:29:58;;;;;;;;;;;23.10;34.90;;;;;;475884;249;1759;-45
2023/01/10 03:31:59;;;;;;;;;;;23.10;34.80;;;;;;475783;249;1943;-45
2023/01/10 03:34:01;;;;;;;;;;;23.20;34.90;;;;;;475845;249;2112;-44
2023/01/10 03:36:02;;;;;;;;;;;23.20;34.80;;;;;;475928;249;2341;-45
2023/01/10 03:38:03;;;;;;;;;;;23.20;34.70;;;;;;475878;249;2191;-45
2023/01/10 03:40:05;;;;;;;;;;;23.20;34.70;;;;;;476217;249;2055;-45
2023/01/10 03:42:06;;;;;;;;;;;23.20;34.70;;;;;;476009;249;1932;-45
2023/01/10 03:46:26;;;;;;;;;;;23.30;34.60;;;;;;475994;250;1902;-44
2023/01/10 03:48:28;;;;;;;;;;;23.30;34.50;;;;;;476020;249;1707;-44
2023/01/10 03:50:29;;;;;;;;;;;23.30;34.50;;;;;;476112;249;2007;-44
2023/01/10 03:52:30;;;;;;;;;;;23.30;34.50;;;;;;475969;249;1843;-45
2023/01/10 03:54:32;;;;;;;;;;;23.40;34.50;;;;;;476027;249;2152;-45
2023/01/10 03:56:33;;;;;;;;;;;23.40;34.40;;;;;;476067;249;1665;-45
2023/01/10 03:58:34;;;;;;;;;;;23.40;34.40;;;;;;476022;249;2168;-44
2023/01/10 04:00:36;;;;;;;;;;;23.40;34.30;;;;;;476153;249;2235;-45
2023/01/10 04:02:37;;;;;;;;;;;23.40;34.30;;;;;;476084;249;1841;-44
2023/01/10 04:04:38;;;;;;;;;;;23.50;34.40;;;;;;475994;249;1867;-45
2023/01/10 04:06:40;;;;;;;;;;;23.50;34.30;;;;;;475951;249;1977;-44
2023/01/10 04:08:41;;;;;;;;;;;23.50;34.30;;;;;;476193;249;2089;-45
2023/01/10 04:10:43;;;;;;;;;;;23.50;34.30;;;;;;476212;249;1868;-45
2023/01/10 04:12:44;;;;;;;;;;;23.50;34.20;;;;;;476149;249;1683;-45
2023/01/10 04:14:46;;;;;;;;;;;23.50;34.20;;;;;;476378;249;1932;-44
2023/01/10 04:16:47;;;;;;;;;;;23.50;34.20;;;;;;476296;249;1721;-44
2023/01/10 04:18:48;;;;;;;;;;;23.50;34.30;;;;;;476252;249;2204;-45
2023/01/10 04:20:50;;;;;;;;;;;23.30;34.50;;;;;;476224;249;2308;-45
2023/01/10 04:22:53;;;;;;;;;;;23.00;34.90;;;;;;476142;249;1770;-44
2023/01/10 04:24:53;;;;;;;;;;;22.80;35.40;;;;;;476218;250;1879;-44
2023/01/10 04:26:54;;;;;;;;;;;22.50;35.80;;;;;;476175;249;2283;-44
2023/01/10 04:28:55;;;;;;;;;;;22.30;36.20;;;;;;476331;249;1674;-45
2023/01/10 04:30:56;;;;;;;;;;;22.20;36.50;;;;;;476478;249;2310;-45
2023/01/10 04:32:58;;;;;;;;;;;22.00;36.80;;;;;;476311;249;1551;-44
2023/01/10 04:34:59;;;;;;;;;;;22.00;37.00;;;;;;476111;249;1746;-44
2023/01/10 04:37:00;;;;;;;;;;;21.80;37.00;;;;;;476168;249;2300;-44
2023/01/10 04:39:02;;;;;;;;;;;21.80;37.30;;;;;;476304;249;2174;-45
2023/01/10 04:41:03;;;;;;;;;;;21.70;37.40;;;;;;476001;249;2174;-45
2023/01/10 04:43:04;;;;;;;;;;;21.70;37.40;;;;;;476011;249;1817;-45
2023/01/10 04:45:05;;;;;;;;;;;21.60;37.50;;;;;;476032;249;1666;-45
2023/01/10 04:47:07;;;;;;;;;;;21.50;37.70;;;;;;475943;249;2079;-44
2023/01/10 04:49:08;;;;;;;;;;;21.50;37.80;;;;;;475923;249;1706;-44
2023/01/10 04:51:09;;;;;;;;;;;21.50;37.80;;;;;;475677;249;1946;-44
2023/01/10 04:53:11;;;;;;;;;;;21.40;37.80;;;;;;475753;249;1866;-44
2023/01/10 04:55:12;;;;;;;;;;;21.40;37.90;;;;;;475895;249;2149;-44
2023/01/10 04:57:13;;;;;;;;;;;21.40;37.90;;;;;;475567;249;1877;-44
2023/01/10 04:59:15;;;;;;;;;;;21.30;37.90;;;;;;475690;249;2183;-44
2023/01/10 05:01:16;;;;;;;;;;;21.30;38.00;;;;;;475713;249;2141;-44
2023/01/10 05:03:19;;;;;;;;;;;21.30;38.10;;;;;;475662;249;1680;-43
2023/01/10 05:05:19;;;;;;;;;;;21.30;38.10;;;;;;475774;250;2024;-45
2023/01/10 05:07:20;;;;;;;;;;;21.30;38.10;;;;;;475928;249;1979;-44
2023/01/10 05:09:21;;;;;;;;;;;21.20;38.10;;;;;;476001;249;2104;-44
2023/01/10 05:11:23;;;;;;;;;;;21.20;38.20;;;;;;476237;249;2089;-44
2023/01/10 05:13:25;;;;;;;;;;;21.30;38.20;;;;;;476091;249;1862;-44
2023/01/10 05:15:25;;;;;;;;;;;21.20;38.20;;;;;;476084;249;1925;-45
2023/01/10 05:17:27;;;;;;;;;;;21.20;38.20;;;;;;476118;249;1959;-44
2023/01/10 05:19:28;;;;;;;;;;;21.20;38.20;;;;;;476065;249;2164;-44
2023/01/10 05:21:29;;;;;;;;;;;21.10;38.30;;;;;;476062;249;1929;-44
2023/01/10 05:23:31;;;;;;;;;;;21.10;38.30;;;;;;475953;249;1745;-44
2023/01/10 05:25:32;;;;;;;;;;;21.10;38.40;;;;;;475962;249;1719;-44
2023/01/10 05:27:33;;;;;;;;;;;21.20;38.40;;;;;;476009;249;1632;-44
2023/01/10 05:29:35;;;;;;;;;;;21.30;38.00;;;;;;475743;249;1708;-44
2023/01/10 05:31:36;;;;;;;;;;;21.60;37.50;;;;;;475773;249;2048;-44
2023/01/10 05:33:37;;;;;;;;;;;21.90;37.20;;;;;;475736;249;1754;-45
2023/01/10 05:35:39;;;;;;;;;;;22.00;36.80;;;;;;475808;249;2257;-45
2023/01/10 05:37:40;;;;;;;;;;;22.20;36.50;;;;;;475952;249;1831;-45
2023/01/10 05:39:42;;;;;;;;;;;22.30;36.30;;;;;;476027;249;2191;-45
2023/01/10 05:41:43;;;;;;;;;;;22.40;36.10;;;;;;475946;249;2227;-45
2023/01/10 05:43:44;;;;;;;;;;;22.50;35.90;;;;;;475998;249;2196;-45
2023/01/10 05:45:45;;;;;;;;;;;22.60;35.80;;;;;;476249;249;2194;-45
2023/01/10 05:47:47;;;;;;;;;;;22.60;35.70;;;;;;476048;249;1947;-45
2023/01/10 05:49:48;;;;;;;;;;;22.70;35.60;;;;;;475974;249;1846;-45
2023/01/10 05:51:49;;;;;;;;;;;22.80;35.50;;;;;;475903;249;2466;-44
2023/01/10 05:53:51;;;;;;;;;;;22.80;35.50;;;;;;476021;249;1693;-45
2023/01/10 05:55:52;;;;;;;;;;;22.80;35.30;;;;;;475986;249;1965;-45
2023/01/10 05:57:53;;;;;;;;;;;22.90;35.30;;;;;;475892;249;2426;-44
2023/01/10 05:59:55;;;;;;;;;;;22.90;35.20;;;;;;475864;249;2207;-45
2023/01/10 06:01:56;;;;;;;;;;;23.00;35.20;;;;;;475579;249;2056;-44
2023/01/10 06:03:57;;;;;;;;;;;23.00;35.10;;;;;;475800;249;1855;-44
2023/01/10 06:05:59;;;;;;;;;;;23.00;35.10;;;;;;475643;249;2092;-45
2023/01/10 06:08:00;;;;;;;;;;;23.10;35.00;;;;;;475761;249;1848;-45
2023/01/10 06:10:01;;;;;;;;;;;23.10;34.90;;;;;;475877;249;1713;-44
2023/01/10 06:12:03;;;;;;;;;;;23.10;34.80;;;;;;475866;249;1901;-45
2023/01/10 06:14:06;;;;;;;;;;;23.20;34.80;;;;;;475982;249;1978;-44
2023/01/10 06:16:05;;;;;;;;;;;23.20;34.80;;;;;;475787;250;2030;-45
2023/01/10 06:18:07;;;;;;;;;;;23.20;34.80;;;;;;475873;249;1726;-45
2023/01/10 06:20:08;;;;;;;;;;;23.20;34.70;;;;;;475811;250;2280;-45
2023/01/10 06:22:09;;;;;;;;;;;23.30;34.70;;;;;;475999;249;1912;-45
2023/01/10 06:24:10;;;;;;;;;;;23.30;34.70;;;;;;475928;249;1748;-44
2023/01/10 06:26:12;;;;;;;;;;;23.30;34.60;;;;;;475868;249;1837;-45
2023/01/10 06:28:13;;;;;;;;;;;23.30;34.60;;;;;;475817;249;1745;-44
2023/01/10 06:30:15;;;;;;;;;;;23.40;34.60;;;;;;475755;249;1710;-44
2023/01/10 06:32:16;;;;;;;;;;;23.40;34.50;;;;;;475772;249;1674;-45
2023/01/10 06:34:17;;;;;;;;;;;23.40;34.50;;;;;;475751;249;1696;-45
2023/01/10 06:36:19;;;;;;;;;;;23.40;34.50;;;;;;475795;249;1724;-45
2023/01/10 06:38:20;;;;;;;;;;;23.40;34.50;;;;;;475828;249;1680;-45
2023/01/10 06:40:21;;;;;;;;;;;23.40;34.40;;;;;;475779;249;2207;-45
2023/01/10 06:42:22;;;;;;;;;;;23.50;34.40;;;;;;475784;249;2141;-45
2023/01/10 06:44:24;;;;;;;;;;;23.50;34.40;;;;;;475665;249;2009;-45
2023/01/10 06:46:26;;;;;;;;;;;23.50;34.40;;;;;;475780;249;1679;-45
2023/01/10 06:48:27;;;;;;;;;;;23.50;34.50;;;;;;475849;249;2022;-45
2023/01/10 06:50:28;;;;;;;;;;;23.40;34.40;;;;;;475831;249;2328;-45
2023/01/10 06:52:30;;;;;;;;;;;23.20;34.70;;;;;;475918;249;1965;-45
2023/01/10 06:54:31;;;;;;;;;;;22.90;35.10;;;;;;475808;249;1700;-44
2023/01/10 06:56:33;;;;;;;;;;;22.60;35.70;;;;;;475709;249;1718;-45
2023/01/10 06:58:34;;;;;;;;;;;22.40;36.10;;;;;;475717;249;1789;-44
2023/01/10 07:00:35;;;;;;;;;;;22.20;36.50;;;;;;475803;249;2191;-44
2023/01/10 07:02:37;;;;;;;;;;;22.10;36.80;;;;;;475741;249;1819;-44
2023/01/10 07:04:38;;;;;;;;;;;21.90;36.90;;;;;;475868;249;1927;-44
2023/01/10 07:06:40;;;;;;;;;;;21.90;37.10;;;;;;476057;249;1661;-44
2023/01/10 07:08:41;;;;;;;;;;;21.80;37.20;;;;;;475684;249;2230;-44
2023/01/10 07:10:42;;;;;;;;;;;21.70;37.30;;;;;;475729;249;1940;-45
2023/01/10 07:12:43;;;;;;;;;;;21.60;37.40;;;;;;475740;249;2081;-44
2023/01/10 07:14:45;;;;;;;;;;;21.60;37.60;;;;;;475668;249;1946;-45
2023/01/10 07:16:46;;;;;;;;;;;21.50;37.60;;;;;;475829;249;2192;-44
2023/01/10 07:18:47;;;;;;;;;;;21.50;37.60;;;;;;475676;249;1915;-45
2023/01/10 07:20:49;;;;;;;;;;;21.40;37.70;;;;;;475537;249;2193;-44
2023/01/10 07:22:50;;;;;;;;;;;21.40;37.80;;;;;;475549;249;1811;-44
2023/01/10 07:24:53;;;;;;;;;;;21.40;37.90;;;;;;475535;249;1682;-44
2023/01/10 07:26:53;;;;;;;;;;;21.40;37.90;;;;;;475523;250;1926;-44
2023/01/10 07:28:54;;;;;;;;;;;21.30;37.90;;;;;;475717;249;1692;-44
2023/01/10 07:30:55;;;;;;;;;;;21.30;37.90;;;;;;475866;249;1690;-44
2023/01/10 07:32:57;;;;;;;;;;;21.20;38.00;;;;;;475820;249;1632;-44
2023/01/10 07:34:58;;;;;;;;;;;21.30;38.10;;;;;;475869;249;1988;-45
2023/01/10 07:36:59;;;;;;;;;;;21.20;38.10;;;;;;475922;249;2129;-44
2023/01/10 07:39:01;;;;;;;;;;;21.20;38.10;;;;;;475633;249;2190;-44
2023/01/10 07:41:02;;;;;;;;;;;21.20;38.10;;;;;;475614;249;1461;-45
2023/01/10 07:43:03;;;;;;;;;;;21.20;38.20;;;;;;475753;249;1688;-45
2023/01/10 07:45:06;;;;;;;;;;;21.10;38.20;;;;;;475743;249;1576;-44
2023/01/10 07:47:06;;;;;;;;;;;21.10;38.20;;;;;;475599;250;2317;-45
2023/01/10 07:49:07;;;;;;;;;;;21.10;38.20;;;;;;475761;249;1720;-44
2023/01/10 07:51:09;;;;;;;;;;;21.10;38.30;;;;;;475602;249;1719;-44
2023/01/10 07:53:10;;;;;;;;;;;21.10;38.30;;;;;;475540;249;1903;-44
2023/01/10 07:55:11;;;;;;;;;;;21.10;38.30;;;;;;475674;249;1713;-44
2023/01/10 07:57:13;;;;;;;;;;;21.30;38.00;;;;;;475432;249;1682;-44
2023/01/10 07:59:14;;;;;;;;;;;21.60;37.40;;;;;;475504;249;2199;-44
2023/01/10 08:01:15;;;;;;;;;;;21.80;36.90;;;;;;475281;249;2180;-45
2023/01/10 08:03:17;;;;;;;;;;;22.00;36.50;;;;;;475277;249;1784;-44
2023/01/10 08:05:18;;;;;;;;;;;22.20;36.20;;;;;;475462;249;1894;-44
2023/01/10 08:07:19;;;;;;;;;;;22.30;36.00;;;;;;475318;249;1564;-44
2023/01/10 08:09:21;;;;;;;;;;;22.40;35.70;;;;;;475417;249;2095;-45
2023/01/10 08:11:22;;;;;;;;;;;22.50;35.60;;;;;;475344;249;2047;-45
2023/01/10 08:13:23;;;;;;;;;;;22.60;35.50;;;;;;475445;249;1569;-45
2023/01/10 08:15:25;;;;;;;;;;;22.70;35.40;;;;;;475493;249;1548;-45
2023/01/10 08:17:26;;;;;;;;;;;22.70;35.20;;;;;;475176;249;1742;-44
2023/01/10 08:19:27;;;;;;;;;;;22.80;35.10;;;;;;475316;249;2196;-45
2023/01/10 08:21:29;;;;;;;;;;;22.80;35.10;;;;;;475155;249;1708;-45
2023/01/10 08:23:31;;;;;;;;;;;22.90;35.00;;;;;;475251;249;1349;-45
2023/01/10 08:25:31;;;;;;;;;;;22.90;34.90;;;;;;475531;249;2195;-45
2023/01/10 08:27:33;;;;;;;;;;;23.00;34.80;;;;;;475256;249;1646;-45
2023/01/10 08:29:34;;;;;;;;;;;23.00;34.70;;;;;;475679;249;1570;-45
2023/01/10 08:31:35;;;;;;;;;;;23.10;34.70;;;;;;475440;249;1920;-45
2023/01/10 08:33:37;;;;;;;;;;;23.10;34.60;;;;;;475569;249;1730;-44
2023/01/10 08:35:38;;;;;;;;;;;23.10;34.50;;;;;;475519;249;1827;-45
2023/01/10 08:37:39;;;;;;;;;;;23.20;34.50;;;;;;475428;249;2024;-45
2023/01/10 08:39:40;;;;;;;;;;;23.20;34.50;;;;;;475491;249;2191;-45
2023/01/10 08:41:42;;;;;;;;;;;23.20;34.40;;;;;;475550;249;1456;-44
2023/01/10 08:43:43;;;;;;;;;;;23.20;34.40;;;;;;475608;249;1530;-45
2023/01/10 08:45:44;;;;;;;;;;;23.30;34.40;;;;;;475653;249;1719;-44
2023/01/10 08:47:46;;;;;;;;;;;23.30;34.30;;;;;;475501;249;2212;-45
2023/01/10 08:49:48;;;;;;;;;;;23.40;34.20;;;;;;475577;249;1787;-45
2023/01/10 08:51:48;;;;;;;;;;;23.40;34.20;;;;;;475526;249;2269;-45
2023/01/10 08:53:50;;;;;;;;;;;23.40;34.20;;;;;;475688;249;1696;-44
2023/01/10 08:55:51;;;;;;;;;;;23.40;34.10;;;;;;475825;249;2168;-45
2023/01/10 08:57:52;;;;;;;;;;;23.40;34.10;;;;;;475719;249;2180;-44
2023/01/10 08:59:54;;;;;;;;;;;23.50;34.10;;;;;;475704;249;2235;-43
2023/01/10 09:01:57;;;;;;;;;;;23.50;34.10;;;;;;475419;249;1991;-44
2023/01/10 09:03:58;;;;;;;;;;;23.50;34.00;;;;;;475416;249;2369;-45
2023/01/10 09:05:59;;;;;;;;;;;23.50;34.00;;;;;;475384;249;1958;-45
2023/01/10 09:08:00;;;;;;;;;;;23.50;34.00;;;;;;475418;249;1982;-45
2023/01/10 09:10:01;;;;;;;;;;;23.50;34.00;;;;;;475221;249;2015;-45
2023/01/10 09:12:53;;;;;;;;;;;23.60;34.00;;;;;;475379;249;1609;-44
2023/01/10 09:14:06;;;;;;;;;;;23.60;34.00;;;;;;473917;250;1724;-45
2023/01/10 09:16:06;;;;;;;;;;;23.60;34.00;;;;;;475342;249;1852;-44
2023/01/10 09:18:07;;;;;;;;;;;23.50;34.10;;;;;;475534;249;1649;-44
2023/01/10 09:20:09;;;;;;;;;;;23.20;34.60;;;;;;475410;249;2228;-45
2023/01/10 09:22:10;;;;;;;;;;;22.90;35.00;;;;;;475564;249;1722;-45
2023/01/10 09:24:11;;;;;;;;;;;22.70;35.40;;;;;;475482;249;1728;-45
2023/01/10 09:26:12;;;;;;;;;;;22.50;35.70;;;;;;475006;249;1559;-44
2023/01/10 09:28:14;;;;;;;;;;;22.40;35.90;;;;;;475649;249;1984;-44
2023/01/10 09:30:15;;;;;;;;;;;22.30;36.10;;;;;;475626;249;1618;-44
2023/01/10 09:32:16;;;;;;;;;;;22.20;36.30;;;;;;475676;249;1858;-45
2023/01/10 09:34:18;;;;;;;;;;;22.10;36.50;;;;;;475598;249;1713;-44
2023/01/10 09:36:19;;;;;;;;;;;22.00;36.60;;;;;;475363;249;1676;-44
2023/01/10 09:38:21;;;;;;;;;;;22.00;36.70;;;;;;475523;249;1783;-45
2023/01/10 09:40:22;;;;;;;;;;;21.90;36.70;;;;;;475588;249;2207;-44
2023/01/10 09:42:25;;;;;;;;;;;21.90;36.80;;;;;;475462;249;1602;-44
2023/01/10 09:44:24;;;;;;;;;;;21.80;36.90;;;;;;475335;250;2141;-44
2023/01/10 09:46:26;;;;;;;;;;;21.80;37.00;;;;;;475351;249;1762;-45
2023/01/10 09:48:27;;;;;;;;;;;21.70;37.00;;;;;;475432;249;1359;-44
2023/01/10 09:50:28;;;;;;;;;;;21.70;37.10;;;;;;475494;249;1360;-45
2023/01/10 09:52:30;;;;;;;;;;;21.60;37.20;;;;;;475294;249;1690;-44
2023/01/10 09:54:31;;;;;;;;;;;21.60;37.20;;;;;;475723;249;1741;-44
2023/01/10 09:56:32;;;;;;;;;;;21.60;37.20;;;;;;475358;249;1976;-44
2023/01/10 09:58:34;;;;;;;;;;;21.60;37.20;;;;;;475328;249;1742;-44
2023/01/10 10:00:35;;;;;;;;;;;21.50;37.30;;;;;;475483;249;2208;-45
2023/01/10 10:02:36;;;;;;;;;;;21.50;37.30;;;;;;475521;249;1228;-44
2023/01/10 10:04:38;;;;;;;;;;;21.50;37.40;;;;;;475547;249;1582;-44
2023/01/10 10:06:39;;;;;;;;;;;21.50;37.40;;;;;;475450;249;1717;-45
2023/01/10 10:08:40;;;;;;;;;;;21.50;37.40;;;;;;475368;249;1697;-44
2023/01/10 10:10:42;;;;;;;;;;;21.40;37.40;;;;;;475462;249;1997;-44
2023/01/10 10:12:43;;;;;;;;;;;21.40;37.50;;;;;;475518;249;1899;-44
2023/01/10 10:14:44;;;;;;;;;;;21.40;37.50;;;;;;475539;249;1697;-44
2023/01/10 10:16:46;;;;;;;;;;;21.40;37.50;;;;;;475415;249;2057;-44
2023/01/10 10:18:47;;;;;;;;;;;21.30;37.50;;;;;;474907;249;1658;-44
2023/01/10 10:20:48;;;;;;;;;;;21.30;37.50;;;;;;475525;249;2192;-44
2023/01/10 10:22:49;;;;;;;;;;;21.30;37.50;;;;;;475421;249;1623;-44
2023/01/10 10:24:51;;;;;;;;;;;21.30;37.60;;;;;;475347;249;1647;-44
2023/01/10 10:26:52;;;;;;;;;;;21.30;37.50;;;;;;475358;249;1800;-44
2023/01/10 10:28:53;;;;;;;;;;;21.30;37.60;;;;;;475449;249;1737;-44
2023/01/10 10:30:55;;;;;;;;;;;21.30;37.70;;;;;;475421;249;2110;-44
2023/01/10 10:32:56;;;;;;;;;;;21.30;37.70;;;;;;475227;249;1715;-44
2023/01/10 10:34:57;;;;;;;;;;;21.20;37.60;;;;;;475348;249;1739;-45
2023/01/10 10:36:59;;;;;;;;;;;21.30;37.70;;;;;;475339;249;2398;-45
2023/01/10 10:39:00;;;;;;;;;;;21.20;37.60;;;;;;475516;249;1687;-44
2023/01/10 10:41:01;;;;;;;;;;;21.20;37.70;;;;;;475442;249;2219;-45
2023/01/10 10:43:03;;;;;;;;;;;21.20;37.80;;;;;;475444;249;1710;-45
2023/01/10 10:45:04;;;;;;;;;;;21.20;37.80;;;;;;475411;249;1741;-44
2023/01/10 10:47:05;;;;;;;;;;;21.20;37.80;;;;;;475414;249;1662;-45
2023/01/10 10:49:07;;;;;;;;;;;21.40;37.50;;;;;;475367;249;1672;-45
2023/01/10 10:51:08;;;;;;;;;;;21.70;37.00;;;;;;475369;249;1471;-44
2023/01/10 10:53:10;;;;;;;;;;;21.90;36.50;;;;;;475422;249;1648;-44
2023/01/10 10:55:11;;;;;;;;;;;22.10;36.10;;;;;;475299;249;1798;-45
2023/01/10 10:57:12;;;;;;;;;;;22.20;35.80;;;;;;475483;249;2054;-45
2023/01/10 10:59:13;;;;;;;;;;;22.30;35.60;;;;;;475290;249;1658;-45
2023/01/10 11:01:15;;;;;;;;;;;22.50;35.40;;;;;;475247;249;2187;-44
2023/01/10 11:03:16;;;;;;;;;;;22.60;35.30;;;;;;475448;249;1748;-45
2023/01/10 11:05:17;;;;;;;;;;;22.60;35.10;;;;;;475362;249;1623;-45
2023/01/10 11:07:19;;;;;;;;;;;22.80;35.00;;;;;;475161;249;1576;-44
2023/01/10 11:09:21;;;;;;;;;;;22.80;34.80;;;;;;475468;249;1712;-44
2023/01/10 11:11:22;;;;;;;;;;;22.80;34.80;;;;;;475435;249;1797;-45
2023/01/10 11:13:24;;;;;;;;;;;22.90;34.60;;;;;;475525;249;1947;-45
2023/01/10 11:15:25;;;;;;;;;;;22.90;34.50;;;;;;475673;249;1857;-45
2023/01/10 11:17:26;;;;;;;;;;;23.00;34.50;;;;;;475346;249;1433;-45
2023/01/10 11:19:29;;;;;;;;;;;23.00;34.30;;;;;;475459;249;1515;-44
2023/01/10 11:21:29;;;;;;;;;;;23.10;34.30;;;;;;475407;249;2188;-45
2023/01/10 11:23:31;;;;;;;;;;;23.10;34.20;;;;;;475595;249;1617;-45
2023/01/10 11:25:32;;;;;;;;;;;23.20;34.20;;;;;;475511;249;1756;-44
2023/01/10 11:27:33;;;;;;;;;;;23.20;34.00;;;;;;475593;249;1678;-45
2023/01/10 11:29:35;;;;;;;;;;;23.20;34.00;;;;;;475298;249;1684;-45
2023/01/10 11:31:36;;;;;;;;;;;23.20;34.00;;;;;;475263;249;1687;-45
2023/01/10 11:33:38;;;;;;;;;;;23.30;34.00;;;;;;475446;249;1967;-45
2023/01/10 11:35:40;;;;;;;;;;;23.30;33.90;;;;;;475244;250;1996;-45
2023/01/10 11:37:40;;;;;;;;;;;23.30;33.80;;;;;;475108;249;1693;-45
2023/01/10 11:39:41;;;;;;;;;;;23.40;33.80;;;;;;475384;249;1684;-44
2023/01/10 11:41:43;;;;;;;;;;;23.40;33.80;;;;;;475316;249;2208;-45
2023/01/10 11:43:44;;;;;;;;;;;23.40;33.70;;;;;;475437;249;1798;-45
2023/01/10 11:45:45;;;;;;;;;;;23.40;33.70;;;;;;475419;249;1755;-45
2023/01/10 11:47:47;;;;;;;;;;;23.50;33.60;;;;;;475619;249;2401;-45
2023/01/10 11:49:48;;;;;;;;;;;23.50;33.50;;;;;;475456;249;1628;-45
2023/01/10 11:51:49;;;;;;;;;;;23.50;33.50;;;;;;475592;249;1713;-45
2023/01/10 11:53:51;;;;;;;;;;;23.50;33.50;;;;;;475590;249;2019;-45
2023/01/10 11:55:52;;;;;;;;;;;23.50;33.40;;;;;;475672;249;2398;-45
2023/01/10 11:57:53;;;;;;;;;;;23.60;33.40;;;;;;475473;249;2007;-45
2023/01/10 11:59:55;;;;;;;;;;;23.60;33.60;;;;;;475578;249;1701;-45
2023/01/10 12:01:56;;;;;;;;;;;23.60;33.60;;;;;;475441;249;2195;-44
2023/01/10 12:03:57;;;;;;;;;;;23.40;33.70;;;;;;475602;249;1923;-44